createdAt,value
2023-04-16T00:00:44.173Z,0.00
2023-04-16T00:01:44.224Z,0.00
2023-04-16T00:02:44.267Z,0.00
2023-04-16T00:03:44.249Z,0.00
2023-04-16T00:04:44.175Z,0.00
2023-04-16T00:05:44.099Z,0.00
2023-04-16T00:06:44.092Z,0.00
2023-04-16T00:07:44.082Z,0.00
2023-04-16T00:08:44.092Z,0.00
2023-04-16T00:09:44.057Z,0.00
2023-04-16T00:10:44.058Z,0.00
2023-04-16T00:11:44.056Z,0.00
2023-04-16T00:12:44.024Z,0.00
2023-04-16T00:13:44.021Z,0.00
2023-04-16T00:14:44.001Z,0.00
2023-04-16T00:15:43.992Z,0.00
2023-04-16T00:16:44.042Z,0.00
2023-04-16T00:17:44.021Z,0.00
2023-04-16T00:18:43.960Z,0.00
2023-04-16T00:19:43.947Z,0.00
2023-04-16T00:20:43.942Z,0.00
2023-04-16T00:21:43.921Z,0.00
2023-04-16T00:22:43.954Z,0.00
2023-04-16T00:23:43.913Z,0.00
2023-04-16T00:24:43.893Z,0.00
2023-04-16T00:25:43.889Z,0.00
2023-04-16T00:26:43.868Z,0.00
2023-04-16T00:27:43.876Z,0.00
2023-04-16T00:28:43.847Z,0.00
2023-04-16T00:29:43.841Z,0.00
2023-04-16T00:30:43.843Z,0.00
2023-04-16T00:31:43.807Z,0.00
2023-04-16T00:32:43.837Z,0.00
2023-04-16T00:33:43.789Z,0.00
2023-04-16T00:34:43.803Z,0.00
2023-04-16T00:35:43.763Z,0.00
2023-04-16T00:36:43.762Z,0.00
2023-04-16T00:37:43.749Z,0.00
2023-04-16T00:38:43.739Z,0.00
2023-04-16T00:39:43.719Z,0.00
2023-04-16T00:40:43.711Z,0.00
2023-04-16T00:41:43.697Z,0.00
2023-04-16T00:42:43.689Z,0.00
2023-04-16T00:43:43.700Z,0.00
2023-04-16T00:44:43.666Z,0.00
2023-04-16T00:45:43.649Z,0.00
2023-04-16T00:46:43.720Z,0.00
2023-04-16T00:47:43.670Z,0.00
2023-04-16T00:48:43.623Z,0.00
2023-04-16T00:49:43.633Z,0.00
2023-04-16T00:50:43.603Z,0.00
2023-04-16T00:51:43.587Z,0.00
2023-04-16T00:52:43.575Z,0.00
2023-04-16T00:53:43.566Z,0.00
2023-04-16T00:54:43.552Z,0.00
2023-04-16T00:55:43.539Z,0.00
2023-04-16T00:56:43.538Z,0.00
2023-04-16T00:57:43.516Z,0.00
2023-04-16T00:58:43.504Z,0.00
2023-04-16T00:59:43.518Z,0.00
2023-04-16T01:00:43.483Z,0.00
2023-04-16T01:01:43.613Z,0.00
2023-04-16T01:02:43.594Z,0.00
2023-04-16T01:03:43.723Z,0.00
2023-04-16T01:04:43.442Z,0.00
2023-04-16T01:05:43.430Z,0.00
2023-04-16T01:06:43.419Z,0.00
2023-04-16T01:07:43.424Z,0.00
2023-04-16T01:08:43.408Z,0.00
2023-04-16T01:09:43.396Z,0.00
2023-04-16T01:10:43.374Z,0.00
2023-04-16T01:11:43.364Z,0.00
2023-04-16T01:12:43.351Z,0.00
2023-04-16T01:13:43.355Z,0.00
2023-04-16T01:14:43.337Z,0.00
2023-04-16T01:15:43.352Z,0.00
2023-04-16T01:16:43.308Z,0.00
2023-04-16T01:17:43.334Z,0.00
2023-04-16T01:18:43.289Z,0.00
2023-04-16T01:19:43.281Z,0.00
2023-04-16T01:20:43.287Z,0.00
2023-04-16T01:21:43.263Z,0.00
2023-04-16T01:22:43.250Z,0.00
2023-04-16T01:23:43.233Z,0.00
2023-04-16T01:24:43.223Z,0.00
2023-04-16T01:25:43.206Z,0.00
2023-04-16T01:26:43.205Z,0.00
2023-04-16T01:27:43.186Z,0.00
2023-04-16T01:28:43.177Z,0.00
2023-04-16T01:29:43.164Z,0.00
2023-04-16T01:30:43.156Z,0.00
2023-04-16T01:31:43.262Z,0.00
2023-04-16T01:32:43.146Z,0.00
2023-04-16T01:33:43.137Z,0.00
2023-04-16T01:34:43.113Z,0.00
2023-04-16T01:35:43.108Z,0.00
2023-04-16T01:36:43.087Z,0.00
2023-04-16T01:37:43.104Z,0.00
2023-04-16T01:38:43.081Z,0.00
2023-04-16T01:39:43.058Z,0.00
2023-04-16T01:40:43.052Z,0.00
2023-04-16T01:41:43.058Z,0.00
2023-04-16T01:42:43.016Z,0.00
2023-04-16T01:43:43.017Z,0.00
2023-04-16T01:44:43.040Z,0.00
2023-04-16T01:45:42.987Z,0.00
2023-04-16T01:46:43.039Z,0.00
2023-04-16T01:47:43.032Z,0.00
2023-04-16T01:48:42.967Z,0.00
2023-04-16T01:49:42.940Z,0.00
2023-04-16T01:50:42.932Z,0.00
2023-04-16T01:51:42.927Z,0.00
2023-04-16T01:52:42.911Z,0.00
2023-04-16T01:53:42.906Z,0.00
2023-04-16T01:54:42.906Z,0.00
2023-04-16T01:55:42.876Z,0.00
2023-04-16T01:56:42.862Z,0.00
2023-04-16T01:57:42.855Z,0.00
2023-04-16T01:58:42.839Z,0.00
2023-04-16T01:59:42.834Z,0.00
2023-04-16T02:00:42.862Z,0.00
2023-04-16T02:01:42.808Z,0.00
2023-04-16T02:02:42.991Z,0.00
2023-04-16T02:03:43.040Z,0.00
2023-04-16T02:04:42.771Z,0.00
2023-04-16T02:05:42.787Z,0.00
2023-04-16T02:06:42.755Z,0.00
2023-04-16T02:07:42.773Z,0.00
2023-04-16T02:08:42.731Z,0.00
2023-04-16T02:09:42.743Z,0.00
2023-04-16T02:10:42.747Z,0.00
2023-04-16T02:11:42.700Z,0.00
2023-04-16T02:12:42.686Z,0.00
2023-04-16T02:13:42.675Z,0.00
2023-04-16T02:14:42.660Z,0.00
2023-04-16T02:15:42.649Z,0.00
2023-04-16T02:16:42.659Z,0.00
2023-04-16T02:17:42.659Z,0.00
2023-04-16T02:18:42.620Z,0.00
2023-04-16T02:19:42.622Z,0.00
2023-04-16T02:20:42.600Z,0.00
2023-04-16T02:21:42.579Z,0.00
2023-04-16T02:22:42.571Z,0.00
2023-04-16T02:23:42.562Z,0.00
2023-04-16T02:24:42.560Z,0.00
2023-04-16T02:25:42.563Z,0.00
2023-04-16T02:26:42.520Z,0.00
2023-04-16T02:27:42.534Z,0.00
2023-04-16T02:28:42.498Z,0.00
2023-04-16T02:29:42.495Z,0.00
2023-04-16T02:30:42.502Z,0.00
2023-04-16T02:31:42.521Z,0.00
2023-04-16T02:32:42.504Z,0.00
2023-04-16T02:33:42.452Z,0.00
2023-04-16T02:34:42.429Z,0.00
2023-04-16T02:35:42.459Z,0.00
2023-04-16T02:36:42.407Z,0.00
2023-04-16T02:37:42.398Z,0.00
2023-04-16T02:38:42.390Z,0.00
2023-04-16T02:39:42.376Z,0.00
2023-04-16T02:40:42.376Z,0.00
2023-04-16T02:41:42.352Z,0.00
2023-04-16T02:42:42.343Z,0.00
2023-04-16T02:43:42.330Z,0.00
2023-04-16T02:44:42.321Z,0.00
2023-04-16T02:45:42.351Z,0.00
2023-04-16T02:46:42.369Z,0.00
2023-04-16T02:47:42.334Z,0.00
2023-04-16T02:48:42.276Z,0.00
2023-04-16T02:49:42.262Z,0.00
2023-04-16T02:50:42.256Z,0.00
2023-04-16T02:51:42.268Z,0.00
2023-04-16T02:52:42.251Z,0.00
2023-04-16T02:53:42.219Z,0.00
2023-04-16T02:54:42.211Z,0.00
2023-04-16T02:55:42.205Z,0.00
2023-04-16T02:56:42.201Z,0.00
2023-04-16T02:57:42.178Z,0.00
2023-04-16T02:58:42.159Z,0.00
2023-04-16T02:59:42.154Z,0.00
2023-04-16T03:00:42.136Z,0.00
2023-04-16T03:01:42.231Z,0.00
2023-04-16T03:02:42.174Z,0.00
2023-04-16T03:03:42.115Z,0.00
2023-04-16T03:04:42.120Z,0.00
2023-04-16T03:05:42.083Z,0.00
2023-04-16T03:06:42.099Z,0.00
2023-04-16T03:07:42.168Z,0.00
2023-04-16T03:08:42.051Z,0.00
2023-04-16T03:09:42.042Z,0.00
2023-04-16T03:10:42.029Z,0.00
2023-04-16T03:11:42.022Z,0.00
2023-04-16T03:12:42.003Z,0.00
2023-04-16T03:13:42.002Z,0.00
2023-04-16T03:14:41.985Z,0.00
2023-04-16T03:15:42.011Z,0.00
2023-04-16T03:16:41.964Z,0.00
2023-04-16T03:17:41.972Z,0.00
2023-04-16T03:18:41.935Z,0.00
2023-04-16T03:19:41.928Z,0.00
2023-04-16T03:20:41.921Z,0.00
2023-04-16T03:21:41.911Z,0.00
2023-04-16T03:22:41.930Z,0.00
2023-04-16T03:23:41.915Z,0.00
2023-04-16T03:24:41.870Z,0.00
2023-04-16T03:25:41.862Z,0.00
2023-04-16T03:26:41.846Z,0.00
2023-04-16T03:27:41.874Z,0.00
2023-04-16T03:28:41.836Z,0.00
2023-04-16T03:29:41.819Z,0.00
2023-04-16T03:30:41.810Z,0.00
2023-04-16T03:31:41.829Z,0.00
2023-04-16T03:32:41.894Z,0.00
2023-04-16T03:33:41.775Z,0.00
2023-04-16T03:34:41.772Z,0.00
2023-04-16T03:35:41.755Z,0.00
2023-04-16T03:36:41.746Z,0.00
2023-04-16T03:37:41.727Z,0.00
2023-04-16T03:38:41.720Z,0.00
2023-04-16T03:39:41.737Z,0.00
2023-04-16T03:40:41.705Z,0.00
2023-04-16T03:41:41.698Z,0.00
2023-04-16T03:42:41.681Z,0.00
2023-04-16T03:43:41.663Z,0.00
2023-04-16T03:44:41.651Z,0.00
2023-04-16T03:45:41.640Z,0.00
2023-04-16T03:46:41.680Z,0.00
2023-04-16T03:47:41.637Z,0.00
2023-04-16T03:48:41.611Z,0.00
2023-04-16T03:49:41.599Z,0.00
2023-04-16T03:50:41.621Z,0.00
2023-04-16T03:51:41.578Z,0.00
2023-04-16T03:52:41.596Z,0.00
2023-04-16T03:53:41.550Z,4.00
2023-04-16T03:54:41.535Z,4.00
2023-04-16T03:55:41.556Z,0.00
2023-04-16T03:56:41.516Z,4.00
2023-04-16T03:57:41.505Z,4.00
2023-04-16T03:58:41.493Z,4.00
2023-04-16T03:59:41.481Z,4.00
2023-04-16T04:00:41.471Z,4.00
2023-04-16T04:01:41.488Z,8.00
2023-04-16T04:02:41.664Z,8.00
2023-04-16T04:03:41.631Z,8.00
2023-04-16T04:04:41.522Z,12.00
2023-04-16T04:05:41.426Z,12.00
2023-04-16T04:06:41.440Z,16.00
2023-04-16T04:07:41.396Z,20.00
2023-04-16T04:08:41.387Z,16.00
2023-04-16T04:09:41.380Z,24.00
2023-04-16T04:10:41.359Z,24.00
2023-04-16T04:11:41.379Z,28.00
2023-04-16T04:12:41.341Z,36.00
2023-04-16T04:13:41.325Z,44.00
2023-04-16T04:14:41.311Z,52.00
2023-04-16T04:15:41.307Z,60.00
2023-04-16T04:16:41.474Z,68.00
2023-04-16T04:17:41.338Z,76.00
2023-04-16T04:18:42.695Z,84.00
2023-04-16T04:19:47.171Z,96.00
2023-04-16T04:20:41.309Z,108.00
2023-04-16T04:21:41.258Z,120.00
2023-04-16T04:22:41.227Z,132.00
2023-04-16T04:23:41.220Z,144.00
2023-04-16T04:24:41.202Z,160.00
2023-04-16T04:25:41.191Z,176.00
2023-04-16T04:26:41.184Z,192.00
2023-04-16T04:27:41.198Z,212.00
2023-04-16T04:28:41.157Z,228.00
2023-04-16T04:29:41.169Z,248.00
2023-04-16T04:30:41.137Z,272.00
2023-04-16T04:31:41.221Z,296.00
2023-04-16T04:32:41.171Z,316.00
2023-04-16T04:33:41.106Z,340.00
2023-04-16T04:34:41.092Z,368.00
2023-04-16T04:35:41.077Z,392.00
2023-04-16T04:36:41.066Z,420.00
2023-04-16T04:37:41.074Z,444.00
2023-04-16T04:38:41.049Z,472.00
2023-04-16T04:39:41.040Z,488.00
2023-04-16T04:40:41.026Z,504.00
2023-04-16T04:41:41.018Z,520.00
2023-04-16T04:42:41.001Z,536.00
2023-04-16T04:43:41.016Z,556.00
2023-04-16T04:44:40.975Z,560.00
2023-04-16T04:45:41.015Z,556.00
2023-04-16T04:46:40.969Z,544.00
2023-04-16T04:47:40.958Z,544.00
2023-04-16T04:48:40.931Z,548.00
2023-04-16T04:49:40.931Z,548.00
2023-04-16T04:50:40.921Z,532.00
2023-04-16T04:51:40.910Z,512.00
2023-04-16T04:52:40.888Z,484.00
2023-04-16T04:53:40.871Z,472.00
2023-04-16T04:54:40.880Z,492.00
2023-04-16T04:55:40.861Z,544.00
2023-04-16T04:56:40.844Z,592.00
2023-04-16T04:57:40.836Z,636.00
2023-04-16T04:58:40.841Z,676.00
2023-04-16T04:59:40.834Z,732.00
2023-04-16T05:00:40.804Z,800.00
2023-04-16T05:01:40.830Z,876.00
2023-04-16T05:02:40.920Z,944.00
2023-04-16T05:03:40.864Z,1016.00
2023-04-16T05:04:40.784Z,1128.00
2023-04-16T05:05:40.760Z,1256.00
2023-04-16T05:06:40.741Z,1400.00
2023-04-16T05:07:40.723Z,1552.00
2023-04-16T05:08:40.717Z,1700.00
2023-04-16T05:09:40.702Z,1820.00
2023-04-16T05:10:40.688Z,1920.00
2023-04-16T05:11:40.675Z,1976.00
2023-04-16T05:12:40.666Z,1992.00
2023-04-16T05:13:40.658Z,1984.00
2023-04-16T05:14:40.644Z,1984.00
2023-04-16T05:15:40.665Z,2024.00
2023-04-16T05:16:40.663Z,2076.00
2023-04-16T05:17:40.658Z,2128.00
2023-04-16T05:18:40.596Z,2184.00
2023-04-16T05:19:40.591Z,2264.00
2023-04-16T05:20:40.584Z,2396.00
2023-04-16T05:21:40.573Z,2532.00
2023-04-16T05:22:40.560Z,2676.00
2023-04-16T05:23:40.560Z,2836.00
2023-04-16T05:24:40.536Z,2996.00
2023-04-16T05:25:40.520Z,3128.00
2023-04-16T05:26:40.510Z,3240.00
2023-04-16T05:27:40.498Z,3344.00
2023-04-16T05:28:40.489Z,3428.00
2023-04-16T05:29:40.491Z,3484.00
2023-04-16T05:30:40.558Z,3520.00
2023-04-16T05:31:40.474Z,3568.00
2023-04-16T05:32:40.496Z,3648.00
2023-04-16T05:33:40.431Z,3736.00
2023-04-16T05:34:40.413Z,3820.00
2023-04-16T05:35:40.407Z,3900.00
2023-04-16T05:36:40.400Z,3940.00
2023-04-16T05:37:40.400Z,3932.00
2023-04-16T05:38:40.375Z,3916.00
2023-04-16T05:39:40.360Z,3860.00
2023-04-16T05:40:40.352Z,3780.00
2023-04-16T05:41:40.337Z,3700.00
2023-04-16T05:42:40.323Z,3660.00
2023-04-16T05:43:40.317Z,3648.00
2023-04-16T05:44:40.301Z,3616.00
2023-04-16T05:45:40.285Z,3576.00
2023-04-16T05:46:40.347Z,3556.00
2023-04-16T05:47:40.400Z,3584.00
2023-04-16T05:48:40.256Z,3672.00
2023-04-16T05:49:40.252Z,3792.00
2023-04-16T05:50:40.236Z,3892.00
2023-04-16T05:51:40.225Z,3916.00
2023-04-16T05:52:40.212Z,3884.00
2023-04-16T05:53:40.205Z,3868.00
2023-04-16T05:54:40.191Z,3904.00
2023-04-16T05:55:40.188Z,4020.00
2023-04-16T05:56:40.176Z,4144.00
2023-04-16T05:57:40.150Z,4228.00
2023-04-16T05:58:40.143Z,4280.00
2023-04-16T05:59:40.129Z,4344.00
2023-04-16T06:00:40.119Z,4380.00
2023-04-16T06:01:40.117Z,4384.00
2023-04-16T06:02:40.305Z,4368.00
2023-04-16T06:03:40.303Z,4344.00
2023-04-16T06:04:40.085Z,4308.00
2023-04-16T06:05:40.132Z,4316.00
2023-04-16T06:06:40.157Z,4384.00
2023-04-16T06:07:40.203Z,4452.00
2023-04-16T06:08:40.251Z,4484.00
2023-04-16T06:09:40.161Z,4512.00
2023-04-16T06:10:40.174Z,4524.00
2023-04-16T06:11:40.046Z,4500.00
2023-04-16T06:12:39.990Z,4468.00
2023-04-16T06:13:39.974Z,4476.00
2023-04-16T06:14:39.967Z,4552.00
2023-04-16T06:15:39.989Z,4680.00
2023-04-16T06:16:39.948Z,4828.00
2023-04-16T06:17:40.131Z,4956.00
2023-04-16T06:18:39.922Z,5068.00
2023-04-16T06:19:39.945Z,5168.00
2023-04-16T06:20:39.925Z,5280.00
2023-04-16T06:21:39.893Z,5388.00
2023-04-16T06:22:39.880Z,5508.00
2023-04-16T06:23:39.863Z,5632.00
2023-04-16T06:24:39.853Z,5744.00
2023-04-16T06:25:39.842Z,5816.00
2023-04-16T06:26:39.839Z,5872.00
2023-04-16T06:27:39.817Z,5908.00
2023-04-16T06:28:39.807Z,5900.00
2023-04-16T06:29:41.576Z,5868.00
2023-04-16T06:30:39.789Z,5824.00
2023-04-16T06:31:39.801Z,5776.00
2023-04-16T06:32:39.897Z,5780.00
2023-04-16T06:33:39.756Z,5792.00
2023-04-16T06:34:39.752Z,5752.00
2023-04-16T06:35:39.755Z,5700.00
2023-04-16T06:36:39.725Z,5648.00
2023-04-16T06:37:39.706Z,5624.00
2023-04-16T06:38:39.691Z,5648.00
2023-04-16T06:39:39.689Z,5672.00
2023-04-16T06:40:39.682Z,5684.00
2023-04-16T06:41:39.676Z,5720.00
2023-04-16T06:42:39.666Z,5848.00
2023-04-16T06:43:39.634Z,5988.00
2023-04-16T06:44:39.662Z,6060.00
2023-04-16T06:45:39.617Z,6080.00
2023-04-16T06:46:39.638Z,6148.00
2023-04-16T06:47:39.630Z,6220.00
2023-04-16T06:48:39.579Z,6244.00
2023-04-16T06:49:39.570Z,6308.00
2023-04-16T06:50:39.557Z,6480.00
2023-04-16T06:51:39.568Z,6716.00
2023-04-16T06:52:39.543Z,6952.00
2023-04-16T06:53:39.522Z,7200.00
2023-04-16T06:54:39.512Z,7456.00
2023-04-16T06:55:39.500Z,7676.00
2023-04-16T06:56:39.502Z,7828.00
2023-04-16T06:57:39.491Z,7928.00
2023-04-16T06:58:39.478Z,7964.00
2023-04-16T06:59:39.454Z,7928.00
2023-04-16T07:00:39.514Z,7816.00
2023-04-16T07:01:39.435Z,7640.00
2023-04-16T07:02:39.639Z,7460.00
2023-04-16T07:03:39.579Z,7352.00
2023-04-16T07:04:39.403Z,7388.00
2023-04-16T07:05:39.392Z,7544.00
2023-04-16T07:06:39.390Z,7644.00
2023-04-16T07:07:39.390Z,7752.00
2023-04-16T07:08:39.366Z,7944.00
2023-04-16T07:09:39.350Z,8048.00
2023-04-16T07:10:39.346Z,8004.00
2023-04-16T07:11:39.321Z,7900.00
2023-04-16T07:12:39.316Z,7872.00
2023-04-16T07:13:39.300Z,7980.00
2023-04-16T07:14:39.294Z,8048.00
2023-04-16T07:15:39.278Z,8032.00
2023-04-16T07:16:39.305Z,8080.00
2023-04-16T07:17:39.290Z,8164.00
2023-04-16T07:18:39.248Z,8268.00
2023-04-16T07:19:39.241Z,8424.00
2023-04-16T07:20:39.220Z,8416.00
2023-04-16T07:21:39.211Z,8164.00
2023-04-16T07:22:39.211Z,7980.00
2023-04-16T07:23:39.238Z,8120.00
2023-04-16T07:24:39.191Z,8640.00
2023-04-16T07:25:39.377Z,9148.00
2023-04-16T07:26:39.160Z,9332.00
2023-04-16T07:27:39.239Z,9364.00
2023-04-16T07:28:39.164Z,9396.00
2023-04-16T07:29:39.140Z,9472.00
2023-04-16T07:30:39.114Z,9464.00
2023-04-16T07:31:39.178Z,9348.00
2023-04-16T07:32:39.120Z,9236.00
2023-04-16T07:33:39.074Z,9216.00
2023-04-16T07:34:39.069Z,9296.00
2023-04-16T07:35:39.064Z,9380.00
2023-04-16T07:36:39.064Z,9416.00
2023-04-16T07:37:39.035Z,9448.00
2023-04-16T07:38:39.023Z,9572.00
2023-04-16T07:39:39.029Z,9720.00
2023-04-16T07:40:38.996Z,9772.00
2023-04-16T07:41:38.989Z,9764.00
2023-04-16T07:42:38.976Z,9756.00
2023-04-16T07:43:38.962Z,9716.00
2023-04-16T07:44:38.958Z,9620.00
2023-04-16T07:45:39.626Z,9536.00
2023-04-16T07:46:47.050Z,9516.00
2023-04-16T07:47:39.983Z,9516.00
2023-04-16T07:48:38.920Z,9504.00
2023-04-16T07:49:38.921Z,9464.00
2023-04-16T07:50:38.899Z,9380.00
2023-04-16T07:51:38.898Z,9316.00
2023-04-16T07:52:38.868Z,9316.00
2023-04-16T07:53:39.155Z,9424.00
2023-04-16T07:54:38.839Z,9716.00
2023-04-16T07:55:38.877Z,10220.00
2023-04-16T07:56:38.821Z,10756.00
2023-04-16T07:57:38.813Z,11316.00
2023-04-16T07:58:38.796Z,11892.00
2023-04-16T07:59:38.782Z,12480.00
2023-04-16T08:00:38.795Z,13100.00
2023-04-16T08:01:38.760Z,13596.00
2023-04-16T08:02:38.849Z,13928.00
2023-04-16T08:03:38.875Z,13996.00
2023-04-16T08:04:38.884Z,13832.00
2023-04-16T08:05:38.732Z,13652.00
2023-04-16T08:06:38.708Z,13704.00
2023-04-16T08:07:38.700Z,13944.00
2023-04-16T08:08:38.685Z,14188.00
2023-04-16T08:09:38.688Z,14384.00
2023-04-16T08:10:38.659Z,14456.00
2023-04-16T08:11:38.675Z,14524.00
2023-04-16T08:12:38.647Z,14548.00
2023-04-16T08:13:38.634Z,14392.00
2023-04-16T08:14:38.641Z,14128.00
2023-04-16T08:15:38.678Z,13980.00
2023-04-16T08:16:38.600Z,13964.00
2023-04-16T08:17:38.635Z,13872.00
2023-04-16T08:18:38.572Z,13684.00
2023-04-16T08:19:38.570Z,13552.00
2023-04-16T08:20:38.573Z,13724.00
2023-04-16T08:21:38.557Z,14392.00
2023-04-16T08:22:38.528Z,15316.00
2023-04-16T08:23:38.518Z,16480.00
2023-04-16T08:24:38.509Z,17440.00
2023-04-16T08:25:38.559Z,18400.00
2023-04-16T08:26:38.506Z,19360.00
2023-04-16T08:27:38.505Z,20096.00
2023-04-16T08:28:38.476Z,20736.00
2023-04-16T08:29:38.457Z,21344.00
2023-04-16T08:30:38.437Z,21952.00
2023-04-16T08:31:38.457Z,22432.00
2023-04-16T08:32:38.519Z,22272.00
2023-04-16T08:33:38.413Z,21376.00
2023-04-16T08:34:38.425Z,20448.00
2023-04-16T08:35:38.386Z,20384.00
2023-04-16T08:36:38.370Z,21088.00
2023-04-16T08:37:38.358Z,21824.00
2023-04-16T08:38:38.367Z,22464.00
2023-04-16T08:39:38.421Z,22816.00
2023-04-16T08:40:38.329Z,22912.00
2023-04-16T08:41:38.325Z,22912.00
2023-04-16T08:42:38.310Z,22944.00
2023-04-16T08:43:38.330Z,22912.00
2023-04-16T08:44:38.309Z,22880.00
2023-04-16T08:45:38.278Z,22496.00
2023-04-16T08:46:38.354Z,21888.00
2023-04-16T08:47:38.300Z,21472.00
2023-04-16T08:48:38.240Z,21152.00
2023-04-16T08:49:38.224Z,20448.00
2023-04-16T08:50:38.220Z,19648.00
2023-04-16T08:51:38.238Z,19072.00
2023-04-16T08:52:38.217Z,18784.00
2023-04-16T08:53:38.335Z,18464.00
2023-04-16T08:54:38.176Z,17888.00
2023-04-16T08:55:38.160Z,17120.00
2023-04-16T08:56:38.147Z,16544.00
2023-04-16T08:57:38.148Z,16256.00
2023-04-16T08:58:38.130Z,16032.00
2023-04-16T08:59:38.163Z,15800.00
2023-04-16T09:00:38.104Z,15284.00
2023-04-16T09:01:38.103Z,14724.00
2023-04-16T09:02:38.413Z,14404.00
2023-04-16T09:03:38.304Z,14508.00
2023-04-16T09:04:38.150Z,14976.00
2023-04-16T09:05:38.048Z,15616.00
2023-04-16T09:06:38.032Z,16224.00
2023-04-16T09:07:38.296Z,16416.00
2023-04-16T09:08:38.009Z,16320.00
2023-04-16T09:09:38.009Z,16512.00
2023-04-16T09:10:37.993Z,16864.00
2023-04-16T09:11:37.979Z,16960.00
2023-04-16T09:12:37.970Z,17024.00
2023-04-16T09:13:37.952Z,17248.00
2023-04-16T09:14:37.945Z,17344.00
2023-04-16T09:15:37.953Z,17120.00
2023-04-16T09:16:37.981Z,16608.00
2023-04-16T09:17:37.961Z,15960.00
2023-04-16T09:18:37.906Z,15712.00
2023-04-16T09:19:37.894Z,15708.00
2023-04-16T09:20:37.878Z,15748.00
2023-04-16T09:21:37.868Z,15792.00
2023-04-16T09:22:37.856Z,16012.00
2023-04-16T09:23:37.843Z,16672.00
2023-04-16T09:24:37.952Z,17312.00
2023-04-16T09:25:37.975Z,17600.00
2023-04-16T09:26:37.966Z,17408.00
2023-04-16T09:27:37.974Z,16864.00
2023-04-16T09:28:37.792Z,16480.00
2023-04-16T09:29:37.800Z,16320.00
2023-04-16T09:30:37.979Z,16352.00
2023-04-16T09:31:37.958Z,16288.00
2023-04-16T09:32:37.789Z,15900.00
2023-04-16T09:33:37.734Z,15528.00
2023-04-16T09:34:37.733Z,15040.00
2023-04-16T09:35:37.710Z,14432.00
2023-04-16T09:36:37.702Z,13824.00
2023-04-16T09:37:37.701Z,13296.00
2023-04-16T09:38:37.685Z,12888.00
2023-04-16T09:39:37.665Z,12664.00
2023-04-16T09:40:37.676Z,12712.00
2023-04-16T09:41:37.657Z,13000.00
2023-04-16T09:42:37.657Z,13272.00
2023-04-16T09:43:37.718Z,13472.00
2023-04-16T09:44:37.630Z,13628.00
2023-04-16T09:45:37.622Z,13704.00
2023-04-16T09:46:37.589Z,13756.00
2023-04-16T09:47:37.686Z,13728.00
2023-04-16T09:48:37.570Z,13348.00
2023-04-16T09:49:37.560Z,12744.00
2023-04-16T09:50:37.553Z,12228.00
2023-04-16T09:51:37.537Z,12044.00
2023-04-16T09:52:37.551Z,12036.00
2023-04-16T09:53:37.537Z,11888.00
2023-04-16T09:54:37.501Z,11656.00
2023-04-16T09:55:37.490Z,11612.00
2023-04-16T09:56:37.481Z,11776.00
2023-04-16T09:57:37.473Z,11976.00
2023-04-16T09:58:37.467Z,12132.00
2023-04-16T09:59:37.456Z,12228.00
2023-04-16T10:00:42.342Z,12192.00
2023-04-16T10:01:37.471Z,11988.00
2023-04-16T10:02:37.443Z,11896.00
2023-04-16T10:03:37.601Z,12048.00
2023-04-16T10:04:37.430Z,12372.00
2023-04-16T10:05:37.382Z,12652.00
2023-04-16T10:06:37.388Z,12832.00
2023-04-16T10:07:37.379Z,13004.00
2023-04-16T10:08:37.375Z,13152.00
2023-04-16T10:09:37.342Z,13308.00
2023-04-16T10:10:37.332Z,13528.00
2023-04-16T10:11:37.325Z,13960.00
2023-04-16T10:12:37.306Z,14496.00
2023-04-16T10:13:37.296Z,14976.00
2023-04-16T10:14:37.319Z,15316.00
2023-04-16T10:15:37.279Z,15512.00
2023-04-16T10:16:37.299Z,15656.00
2023-04-16T10:17:37.290Z,15824.00
2023-04-16T10:18:37.307Z,16000.00
2023-04-16T10:19:37.298Z,16256.00
2023-04-16T10:20:37.212Z,16384.00
2023-04-16T10:21:37.202Z,16416.00
2023-04-16T10:22:37.191Z,16384.00
2023-04-16T10:23:37.210Z,16416.00
2023-04-16T10:24:37.175Z,16608.00
2023-04-16T10:25:37.159Z,16832.00
2023-04-16T10:26:37.153Z,17088.00
2023-04-16T10:27:37.140Z,17408.00
2023-04-16T10:28:37.130Z,17952.00
2023-04-16T10:29:37.118Z,18560.00
2023-04-16T10:30:37.119Z,19040.00
2023-04-16T10:31:37.104Z,19360.00
2023-04-16T10:32:37.112Z,19680.00
2023-04-16T10:33:37.114Z,19808.00
2023-04-16T10:34:37.080Z,19776.00
2023-04-16T10:35:37.074Z,19808.00
2023-04-16T10:36:37.036Z,20000.00
2023-04-16T10:37:37.034Z,20480.00
2023-04-16T10:38:37.050Z,21184.00
2023-04-16T10:39:37.033Z,21792.00
2023-04-16T10:40:36.993Z,22304.00
2023-04-16T10:41:37.004Z,22848.00
2023-04-16T10:42:37.058Z,23456.00
2023-04-16T10:43:36.961Z,24384.00
2023-04-16T10:44:36.957Z,25376.00
2023-04-16T10:45:36.970Z,26208.00
2023-04-16T10:46:36.977Z,26848.00
2023-04-16T10:47:36.943Z,27168.00
2023-04-16T10:48:46.775Z,27136.00
2023-04-16T10:49:36.890Z,26912.00
2023-04-16T10:50:36.995Z,26720.00
2023-04-16T10:51:36.888Z,26848.00
2023-04-16T10:52:36.850Z,27232.00
2023-04-16T10:53:36.842Z,27840.00
2023-04-16T10:54:36.831Z,28544.00
2023-04-16T10:55:36.818Z,29472.00
2023-04-16T10:56:36.833Z,30496.00
2023-04-16T10:57:36.807Z,31488.00
2023-04-16T10:58:36.790Z,32544.00
2023-04-16T10:59:36.775Z,33152.00
2023-04-16T11:00:36.768Z,32736.00
2023-04-16T11:01:36.771Z,32000.00
2023-04-16T11:02:36.868Z,31488.00
2023-04-16T11:03:36.866Z,31648.00
2023-04-16T11:04:36.907Z,31680.00
2023-04-16T11:05:36.709Z,31520.00
2023-04-16T11:06:36.698Z,32224.00
2023-04-16T11:07:36.775Z,32160.00
2023-04-16T11:08:47.552Z,31072.00
2023-04-16T11:09:36.661Z,29664.00
2023-04-16T11:10:36.648Z,29792.00
2023-04-16T11:11:36.640Z,30368.00
2023-04-16T11:12:36.634Z,29408.00
2023-04-16T11:13:36.619Z,27840.00
2023-04-16T11:14:36.604Z,27616.00
2023-04-16T11:15:36.701Z,28288.00
2023-04-16T11:16:36.601Z,29856.00
2023-04-16T11:17:36.587Z,31008.00
2023-04-16T11:18:36.618Z,31648.00
2023-04-16T11:19:36.555Z,32416.00
2023-04-16T11:20:36.542Z,32288.00
2023-04-16T11:21:36.530Z,31488.00
2023-04-16T11:22:36.543Z,31104.00
2023-04-16T11:23:36.529Z,31104.00
2023-04-16T11:24:36.497Z,31264.00
2023-04-16T11:25:36.482Z,31680.00
2023-04-16T11:26:36.470Z,31872.00
2023-04-16T11:27:36.465Z,31872.00
2023-04-16T11:28:36.455Z,32032.00
2023-04-16T11:29:36.474Z,32256.00
2023-04-16T11:30:36.553Z,32192.00
2023-04-16T11:31:36.514Z,31616.00
2023-04-16T11:32:36.435Z,30592.00
2023-04-16T11:33:36.394Z,28480.00
2023-04-16T11:34:36.395Z,27040.00
2023-04-16T11:35:36.389Z,26848.00
2023-04-16T11:36:36.364Z,26976.00
2023-04-16T11:37:36.363Z,26400.00
2023-04-16T11:38:36.357Z,25792.00
2023-04-16T11:39:36.354Z,25376.00
2023-04-16T11:40:36.404Z,24448.00
2023-04-16T11:41:36.331Z,23296.00
2023-04-16T11:42:36.402Z,22432.00
2023-04-16T11:43:36.285Z,22400.00
2023-04-16T11:44:36.272Z,23808.00
2023-04-16T11:45:36.260Z,25888.00
2023-04-16T11:46:36.294Z,27552.00
2023-04-16T11:47:36.307Z,28192.00
2023-04-16T11:48:36.255Z,27680.00
2023-04-16T11:49:36.223Z,27648.00
2023-04-16T11:50:36.209Z,28704.00
2023-04-16T11:51:36.348Z,28896.00
2023-04-16T11:52:36.210Z,27552.00
2023-04-16T11:53:36.179Z,26400.00
2023-04-16T11:54:36.170Z,25280.00
2023-04-16T11:55:36.180Z,23200.00
2023-04-16T11:56:36.145Z,20928.00
2023-04-16T11:57:36.133Z,20544.00
2023-04-16T11:58:36.118Z,21472.00
2023-04-16T11:59:36.120Z,22432.00
2023-04-16T12:00:36.107Z,23072.00
2023-04-16T12:01:36.121Z,23712.00
2023-04-16T12:02:36.184Z,24032.00
2023-04-16T12:03:36.399Z,24352.00
2023-04-16T12:04:36.169Z,24864.00
2023-04-16T12:05:36.043Z,26112.00
2023-04-16T12:06:36.052Z,27008.00
2023-04-16T12:07:36.020Z,27136.00
2023-04-16T12:08:36.016Z,27840.00
2023-04-16T12:09:37.931Z,29056.00
2023-04-16T12:10:36.003Z,29152.00
2023-04-16T12:11:36.006Z,27552.00
2023-04-16T12:12:35.968Z,24832.00
2023-04-16T12:13:35.955Z,22752.00
2023-04-16T12:14:35.960Z,22336.00
2023-04-16T12:15:35.943Z,22560.00
2023-04-16T12:16:36.046Z,22368.00
2023-04-16T12:17:35.955Z,21888.00
2023-04-16T12:18:35.957Z,21120.00
2023-04-16T12:19:35.893Z,20960.00
2023-04-16T12:20:35.876Z,21376.00
2023-04-16T12:21:35.883Z,21152.00
2023-04-16T12:22:37.083Z,20320.00